Ronald Reagan Washington National Airport
KDCA : now visible

Airfield :











YOU CAN JOIN US ON...

 
LOGIN :

Register | Disclaimer

   EN    FR    IT 

 









Legend :    VFR   Marginal VFR   IFR   Intensive IFR   Very Intensive IFR
Visi :
Ceiling :
>= 8 km
>= 3000ft
5 to 8 km
1000 to 3000 ft
1500m to 5 km
500 to 1000 ft
800 to 1500m
200 to 500 ft
< 800m
< 200 ft
Symbols :   Thunderstorms  Fog  Heavy snow  Heavy precipitations  Wind > 20 kt






- Airport Elevation : 15 ft
- IATA code : DCA


KDCA - Ronald Reagan Washington National

CURRENT METAR :
  • 200952Z 22005KT 10SM FEW250 08/07 A2997 RMK AO2 SLP147 T00830067

EXPIRED METARs :
  • 200852Z 20005KT 10SM CLR 09/07 A2995 RMK AO2 SLP142 T00940072 52001
  • 200752Z 20006KT 10SM SCT250 10/08 A2995 RMK AO2 SLP142 T01000078

TAF KDCA
Valid from the 20 at 09:00 until the 21 at 12:00 UTC


200853Z 2009/2112 20005KT P6SM SKC
FM201400 19008G16KT P6SM SCT050
FM210000 18008KT P6SM SCT050 SCT130
KZDC FIR / North America



MET'MAP, your aeronautical weather chart ! - Copyright ORBIFLY December 2007 - Disclaimer

ORBIFLY MET'MAP TEAM :

Programming & Development : Alexandra Zaïnal
Concept & original design : Baudouin d'Aumeries
Assistance for programming : Marc-Olivier Méhu
Technical & hardware support : Manuel Goepfert

Contact : metmap@orbifly.com




SOURCES & CREDITS :

   NOAA       Earth
Advisory